Time;durP1;ratioP1;P1;durP2;ratioP2;P2;SDS_P1;SDS_P2;PMS_P1;PMS_P2;Temp;Humidity;BMP_temperature;BMP_pressure;BME280_temperature;BME280_humidity;BME280_pressure;Samples;Min_cycle;Max_cycle;Signal;HPM_P1;HPM_P2
2023/07/12 00:00:53;;;;;;;6.20;2.42;;;20.90;99.90;;;;;;4960596;28;20038;-87
2023/07/12 00:03:19;;;;;;;6.88;2.65;;;20.90;99.90;;;;;;4960444;28;20035;-87
2023/07/12 00:05:46;;;;;;;5.78;2.53;;;20.90;99.90;;;;;;4959813;28;20105;-87
2023/07/12 00:08:21;;;;;;;5.38;2.40;;;20.90;99.90;;;;;;4960164;28;20030;-86
2023/07/12 00:10:48;;;;;;;4.50;2.22;;;20.90;99.90;;;;;;4953932;28;20050;-84
2023/07/12 00:13:15;;;;;;;8.05;2.67;;;20.90;99.90;;;;;;4962557;28;20015;-86
2023/07/12 00:15:41;;;;;;;6.90;2.60;;;20.80;99.90;;;;;;4952526;28;20066;-85
2023/07/12 00:18:18;;;;;;;6.30;2.45;;;20.80;99.90;;;;;;4974633;28;20023;-85
2023/07/12 00:20:46;;;;;;;7.30;2.65;;;20.80;99.90;;;;;;4957274;28;20026;-85
2023/07/12 00:23:14;;;;;;;5.63;2.17;;;20.80;99.90;;;;;;4957123;28;20027;-85
2023/07/12 00:25:41;;;;;;;6.32;2.50;;;20.90;99.90;;;;;;4957583;28;20027;-85
2023/07/12 00:28:25;;;;;;;6.63;2.70;;;20.80;99.90;;;;;;4974682;28;20038;-94
2023/07/12 00:30:53;;;;;;;5.75;2.67;;;20.70;99.90;;;;;;4958064;28;20117;-94
2023/07/12 00:33:19;;;;;;;7.55;2.83;;;20.60;99.90;;;;;;4959737;28;20023;-94
2023/07/12 00:35:46;;;;;;;5.20;2.60;;;20.60;99.90;;;;;;4959262;28;20381;-93
2023/07/12 00:38:21;;;;;;;6.82;2.72;;;20.50;99.90;;;;;;4943114;28;20027;-93
2023/07/12 00:40:56;;;;;;;5.75;2.72;;;20.40;99.90;;;;;;4958365;28;20034;-93
2023/07/12 00:43:38;;;;;;;7.78;3.05;;;20.40;99.90;;;;;;4958235;28;20026;-93
2023/07/12 00:46:22;;;;;;;7.20;3.20;;;20.30;99.90;;;;;;4957992;28;20030;-94
2023/07/12 00:48:54;;;;;;;8.05;3.20;;;20.20;99.90;;;;;;4958125;28;20027;-93
2023/07/12 00:51:28;;;;;;;7.80;3.13;;;20.10;99.90;;;;;;4942021;28;20060;-94
2023/07/12 00:53:58;;;;;;;6.78;3.03;;;20.00;99.90;;;;;;4958336;28;20483;-93
2023/07/12 00:56:25;;;;;;;7.10;3.55;;;20.00;99.90;;;;;;4958028;28;20027;-93
2023/07/12 00:59:03;;;;;;;6.63;3.25;;;20.00;99.90;;;;;;4957952;28;20015;-93
2023/07/12 01:01:29;;;;;;;5.88;3.05;;;19.90;99.90;;;;;;4958126;28;20031;-93
2023/07/12 01:03:55;;;;;;;6.78;2.83;;;19.90;99.90;;;;;;4942034;28;20022;-92
2023/07/12 01:06:23;;;;;;;8.43;3.05;;;19.80;99.90;;;;;;4961273;28;20037;-87
2023/07/12 01:08:49;;;;;;;5.63;2.80;;;19.80;99.90;;;;;;4960523;28;20029;-86
2023/07/12 01:11:16;;;;;;;7.15;2.65;;;19.70;99.90;;;;;;4944665;28;20034;-87
2023/07/12 01:13:45;;;;;;;7.65;2.70;;;19.60;99.90;;;;;;4947108;28;20058;-87
2023/07/12 01:16:17;;;;;;;9.65;3.03;;;19.50;99.90;;;;;;4979932;28;20118;-87
2023/07/12 01:18:43;;;;;;;7.53;3.28;;;19.30;99.90;;;;;;4997146;28;20465;-87
2023/07/12 01:21:16;;;;;;;6.80;3.08;;;19.30;99.90;;;;;;4964294;28;20033;-87
2023/07/12 01:23:42;;;;;;;12.02;3.63;;;19.20;99.90;;;;;;4979771;28;20023;-85
2023/07/12 01:26:22;;;;;;;10.27;3.17;;;19.20;99.90;;;;;;4964034;28;20037;-85
2023/07/12 01:28:52;;;;;;;9.90;3.55;;;19.20;99.90;;;;;;4980199;28;20030;-89
2023/07/12 01:31:18;;;;;;;7.38;2.80;;;19.10;99.90;;;;;;4997366;28;20022;-89
2023/07/12 01:33:44;;;;;;;8.50;3.42;;;19.10;99.90;;;;;;4963931;28;20034;-87
2023/07/12 01:36:10;;;;;;;6.82;3.13;;;19.00;99.90;;;;;;4979719;28;20113;-87
2023/07/12 01:38:36;;;;;;;8.07;2.80;;;19.00;99.90;;;;;;4963650;28;20077;-93
2023/07/12 01:41:02;;;;;;;8.00;3.58;;;19.00;99.90;;;;;;4963951;28;20034;-93
2023/07/12 01:43:28;;;;;;;10.80;3.45;;;18.90;99.90;;;;;;4964666;28;20034;-93
2023/07/12 01:45:53;;;;;;;10.82;3.35;;;19.00;99.90;;;;;;4964058;28;20053;-93
2023/07/12 01:48:19;;;;;;;14.65;3.22;;;19.00;99.90;;;;;;4964281;28;20070;-92
2023/07/12 01:50:45;;;;;;;10.55;3.38;;;19.00;99.90;;;;;;4963896;28;20035;-93
2023/07/12 01:53:11;;;;;;;14.20;2.70;;;18.90;99.90;;;;;;4963960;28;20031;-93
2023/07/12 01:55:36;;;;;;;11.40;3.63;;;18.90;99.90;;;;;;4980215;28;20478;-89
2023/07/12 01:58:02;;;;;;;7.57;2.70;;;18.90;99.90;;;;;;4963594;28;20034;-90
2023/07/12 02:00:28;;;;;;;9.20;3.05;;;19.00;99.90;;;;;;4947633;28;20034;-89
2023/07/12 02:02:54;;;;;;;13.52;3.35;;;19.00;99.90;;;;;;4947508;28;20034;-90
2023/07/12 02:05:21;;;;;;;8.48;3.03;;;19.00;99.90;;;;;;4979652;28;20088;-87
2023/07/12 02:07:48;;;;;;;10.70;2.97;;;19.00;99.90;;;;;;4979434;28;20418;-87
2023/07/12 02:10:16;;;;;;;10.75;2.95;;;19.00;99.90;;;;;;4962801;28;20019;-87
2023/07/12 02:12:44;;;;;;;16.83;3.83;;;19.10;99.90;;;;;;4963146;28;20031;-90
2023/07/12 02:15:11;;;;;;;14.18;3.50;;;19.00;99.90;;;;;;4979116;28;20054;-89
2023/07/12 02:18:14;;;;;;;11.35;3.33;;;19.10;99.90;;;;;;4962503;28;20438;-89
2023/07/12 02:20:40;;;;;;;10.52;3.10;;;19.00;99.90;;;;;;4979140;28;20474;-88
2023/07/12 02:23:07;;;;;;;9.60;3.85;;;19.00;99.90;;;;;;4963177;28;20023;-89
2023/07/12 02:25:33;;;;;;;14.43;3.63;;;19.00;99.90;;;;;;4979042;28;20038;-90
2023/07/12 02:27:58;;;;;;;13.13;3.72;;;19.00;99.90;;;;;;4963198;28;20034;-93
2023/07/12 02:30:26;;;;;;;10.40;3.30;;;19.00;99.90;;;;;;4979951;28;20357;-94
2023/07/12 02:32:54;;;;;;;10.57;2.70;;;19.00;99.90;;;;;;4980125;28;20026;-92
2023/07/12 02:35:22;;;;;;;12.27;3.83;;;19.00;99.90;;;;;;4964060;28;20515;-93
2023/07/12 02:37:47;;;;;;;12.10;3.13;;;18.90;99.90;;;;;;4980314;28;20018;-93
2023/07/12 02:40:14;;;;;;;10.50;3.33;;;18.80;99.90;;;;;;4948695;28;20030;-93
2023/07/12 02:42:49;;;;;;;9.45;3.38;;;18.80;99.90;;;;;;4980565;28;20058;-93
2023/07/12 02:45:21;;;;;;;9.50;3.00;;;18.80;99.90;;;;;;4948636;28;20036;-89
2023/07/12 02:47:53;;;;;;;10.60;3.10;;;18.70;99.90;;;;;;4962597;28;20038;-89
2023/07/12 02:50:19;;;;;;;11.43;3.00;;;18.70;99.90;;;;;;4962678;28;20023;-91
2023/07/12 02:52:44;;;;;;;8.48;2.65;;;18.70;99.90;;;;;;4978568;28;20018;-90
2023/07/12 02:55:10;;;;;;;11.30;2.83;;;18.60;99.90;;;;;;4962554;28;20030;-90
2023/07/12 02:57:36;;;;;;;6.85;2.53;;;18.50;99.90;;;;;;4962459;28;20030;-89
2023/07/12 03:00:03;;;;;;;11.23;2.88;;;18.50;99.90;;;;;;4978704;28;20089;-89
2023/07/12 03:02:30;;;;;;;10.98;3.22;;;18.50;99.90;;;;;;4995532;28;20473;-87
2023/07/12 03:04:55;;;;;;;9.32;2.60;;;18.50;99.90;;;;;;4978275;28;20032;-87
2023/07/12 03:07:21;;;;;;;11.07;3.28;;;18.50;99.90;;;;;;4977854;28;20030;-87
2023/07/12 03:09:47;;;;;;;7.45;2.42;;;18.50;99.90;;;;;;4961653;28;20034;-87
2023/07/12 03:12:12;;;;;;;10.52;3.20;;;18.50;99.90;;;;;;4961759;28;20436;-87
2023/07/12 03:14:38;;;;;;;10.88;3.72;;;18.50;99.90;;;;;;4977421;28;20050;-87
2023/07/12 03:17:05;;;;;;;11.40;3.30;;;18.40;99.90;;;;;;4961469;28;20027;-87
2023/07/12 03:19:33;;;;;;;8.85;2.90;;;18.30;99.90;;;;;;4962286;28;20034;-93
2023/07/12 03:21:58;;;;;;;8.35;2.67;;;18.20;99.90;;;;;;4962876;28;20462;-94
2023/07/12 03:24:24;;;;;;;8.23;2.50;;;18.20;99.90;;;;;;4946475;28;20113;-92
2023/07/12 03:26:50;;;;;;;10.40;2.78;;;18.10;99.90;;;;;;4946712;28;20041;-93
2023/07/12 03:29:15;;;;;;;10.68;2.90;;;18.00;99.90;;;;;;4946195;28;20118;-93
2023/07/12 03:31:56;;;;;;;7.20;2.28;;;18.00;99.90;;;;;;4946559;28;20042;-94
2023/07/12 03:34:25;;;;;;;8.40;2.83;;;17.90;99.90;;;;;;4962470;28;20061;-93
2023/07/12 03:36:50;;;;;;;10.82;3.15;;;17.90;99.90;;;;;;4962437;28;20400;-93
2023/07/12 03:39:17;;;;;;;9.60;2.95;;;17.90;99.90;;;;;;4962076;28;20042;-94
2023/07/12 03:41:43;;;;;;;7.35;2.78;;;17.90;99.90;;;;;;4978027;28;20014;-94
2023/07/12 03:44:08;;;;;;;11.57;2.80;;;17.80;99.90;;;;;;4946187;28;20026;-93
2023/07/12 03:46:34;;;;;;;10.05;3.15;;;17.80;99.90;;;;;;4962025;28;20077;-93
2023/07/12 03:49:00;;;;;;;8.68;3.28;;;17.80;99.90;;;;;;4962042;28;20018;-94
2023/07/12 03:52:04;;;;;;;9.55;3.00;;;17.80;99.90;;;;;;4934720;28;20027;-85
2023/07/12 03:54:29;;;;;;;8.20;3.17;;;17.70;99.90;;;;;;4985745;28;20030;-85
2023/07/12 03:56:55;;;;;;;10.32;3.47;;;17.70;99.90;;;;;;4976914;28;20029;-86
2023/07/12 03:59:21;;;;;;;11.63;4.32;;;17.70;99.90;;;;;;4961289;28;20117;-86
2023/07/12 04:01:46;;;;;;;9.18;3.97;;;17.60;99.90;;;;;;4976859;28;20064;-85
2023/07/12 04:04:12;;;;;;;8.88;4.32;;;17.60;99.90;;;;;;4960895;28;20034;-85
2023/07/12 04:06:37;;;;;;;11.55;4.88;;;17.50;99.90;;;;;;4994233;28;20050;-85
2023/07/12 04:09:03;;;;;;;13.02;4.93;;;17.50;99.90;;;;;;4945448;28;20058;-90
2023/07/12 04:11:31;;;;;;;12.13;5.65;;;17.50;99.90;;;;;;4945532;28;20037;-90
2023/07/12 04:13:59;;;;;;;14.13;6.60;;;17.50;99.90;;;;;;4977769;28;20061;-90
2023/07/12 04:16:25;;;;;;;12.90;6.70;;;17.50;99.90;;;;;;4978089;28;20026;-90
2023/07/12 04:18:52;;;;;;;12.82;7.22;;;17.40;99.90;;;;;;4977518;28;20026;-90
2023/07/12 04:21:18;;;;;;;11.25;7.15;;;17.50;99.90;;;;;;4977626;28;20049;-93
2023/07/12 04:23:47;;;;;;;13.07;7.93;;;17.50;99.90;;;;;;4946011;28;20034;-93
2023/07/12 04:26:13;;;;;;;14.80;7.95;;;17.50;99.90;;;;;;4978011;28;20539;-93
2023/07/12 04:28:40;;;;;;;13.25;9.25;;;17.40;99.90;;;;;;4961502;28;20030;-90
2023/07/12 04:31:09;;;;;;;14.25;9.00;;;17.40;99.90;;;;;;4994834;28;20162;-87
2023/07/12 04:33:35;;;;;;;14.93;9.75;;;17.50;99.90;;;;;;4995124;28;20026;-87
2023/07/12 04:36:09;;;;;;;16.48;10.80;;;17.50;99.90;;;;;;4961185;28;20117;-87
2023/07/12 04:38:35;;;;;;;18.35;9.68;;;17.40;99.90;;;;;;4962262;28;20425;-87
2023/07/12 04:41:01;;;;;;;21.42;12.45;;;17.40;99.90;;;;;;4998725;28;20022;-86
2023/07/12 04:43:28;;;;;;;18.52;11.43;;;17.50;99.90;;;;;;4981245;28;20039;-92
2023/07/12 04:45:53;;;;;;;17.90;11.38;;;17.40;99.90;;;;;;4965722;28;20037;-92
2023/07/12 04:48:20;;;;;;;18.70;12.50;;;17.40;99.90;;;;;;4965306;28;20449;-92
2023/07/12 04:50:50;;;;;;;18.52;12.98;;;17.40;99.90;;;;;;4949042;28;20053;-92
2023/07/12 04:53:15;;;;;;;16.70;12.00;;;17.40;99.90;;;;;;4981268;28;20023;-92
2023/07/12 04:55:41;;;;;;;19.90;12.48;;;17.40;99.90;;;;;;4981241;28;20432;-92
2023/07/12 04:58:07;;;;;;;19.00;13.52;;;17.40;99.90;;;;;;4965089;28;20461;-91
2023/07/12 05:00:33;;;;;;;21.10;13.27;;;17.50;99.90;;;;;;4965073;28;20031;-90
2023/07/12 05:03:24;;;;;;;21.85;13.82;;;17.40;99.90;;;;;;4985871;28;20068;-90
2023/07/12 05:05:51;;;;;;;20.73;14.73;;;17.40;99.90;;;;;;5000508;28;20054;-89
2023/07/12 05:08:16;;;;;;;20.88;14.55;;;17.40;99.90;;;;;;5000337;28;20087;-89
2023/07/12 05:10:42;;;;;;;22.58;14.98;;;17.40;99.90;;;;;;4983445;28;20044;-88
2023/07/12 05:13:08;;;;;;;21.67;14.60;;;17.40;99.90;;;;;;4983711;28;20018;-84
2023/07/12 05:15:33;;;;;;;21.17;14.85;;;17.40;99.90;;;;;;4983768;28;20065;-84
2023/07/12 05:17:59;;;;;;;23.88;14.25;;;17.40;99.90;;;;;;4985213;28;20554;-84
2023/07/12 05:20:24;;;;;;;24.98;14.82;;;17.30;99.90;;;;;;4998284;28;20065;-84
2023/07/12 05:22:50;;;;;;;21.70;14.55;;;17.30;99.90;;;;;;4980614;28;20030;-85
2023/07/12 05:25:16;;;;;;;22.55;14.70;;;17.30;99.90;;;;;;4983217;28;20079;-84
2023/07/12 05:27:42;;;;;;;18.30;13.85;;;17.40;99.90;;;;;;5000788;28;20070;-82
2023/07/12 05:30:09;;;;;;;26.02;15.70;;;17.30;99.90;;;;;;5000704;28;20053;-84
2023/07/12 05:32:35;;;;;;;28.27;15.73;;;17.30;99.90;;;;;;5016845;28;20018;-87
2023/07/12 05:35:00;;;;;;;22.27;13.73;;;17.30;99.90;;;;;;4966549;28;20041;-86
2023/07/12 05:37:26;;;;;;;20.05;13.63;;;17.40;99.90;;;;;;4966593;28;20026;-86
2023/07/12 05:39:51;;;;;;;20.98;11.88;;;17.40;99.90;;;;;;4983039;28;20026;-86
2023/07/12 05:42:17;;;;;;;20.80;11.13;;;17.40;99.90;;;;;;4966737;28;20026;-86
2023/07/12 05:44:43;;;;;;;17.80;10.07;;;17.40;99.90;;;;;;4999427;28;20154;-86
2023/07/12 05:47:09;;;;;;;21.58;10.55;;;17.50;99.90;;;;;;4982791;28;20454;-86
2023/07/12 05:49:35;;;;;;;17.92;10.00;;;17.50;99.90;;;;;;4983140;28;20481;-92
2023/07/12 05:52:01;;;;;;;19.10;9.85;;;17.50;99.90;;;;;;4998233;28;20018;-92
2023/07/12 05:54:27;;;;;;;19.50;9.80;;;17.50;99.90;;;;;;4968022;28;20033;-93
2023/07/12 05:56:52;;;;;;;12.93;9.75;;;17.50;99.90;;;;;;4968712;28;20481;-93
2023/07/12 05:59:19;;;;;;;17.70;8.95;;;17.50;99.90;;;;;;4983628;28;20026;-92
2023/07/12 06:01:44;;;;;;;12.82;7.97;;;17.60;99.90;;;;;;4984736;28;20026;-92
2023/07/12 06:04:11;;;;;;;18.35;7.93;;;17.60;99.90;;;;;;4967327;28;20042;-93
2023/07/12 06:06:37;;;;;;;16.33;7.63;;;17.60;99.90;;;;;;4982353;28;20032;-84
2023/07/12 06:09:03;;;;;;;16.75;7.70;;;17.50;99.90;;;;;;4997942;28;20033;-84
2023/07/12 06:11:29;;;;;;;13.82;7.57;;;17.50;99.90;;;;;;4998000;28;20046;-84
2023/07/12 06:13:54;;;;;;;11.05;6.90;;;17.50;99.90;;;;;;4981840;28;20026;-85
2023/07/12 06:16:20;;;;;;;15.10;7.95;;;17.50;99.90;;;;;;5015563;28;20038;-84
2023/07/12 06:18:46;;;;;;;16.42;7.18;;;17.50;99.90;;;;;;5000676;28;20026;-86
2023/07/12 06:21:11;;;;;;;14.73;7.78;;;17.50;99.90;;;;;;4988121;28;20519;-86
2023/07/12 06:23:37;;;;;;;16.60;7.68;;;17.50;99.90;;;;;;4997837;28;20030;-87
2023/07/12 06:26:04;;;;;;;15.52;7.80;;;17.60;99.90;;;;;;4981204;28;20117;-87
2023/07/12 06:28:30;;;;;;;18.85;7.55;;;17.60;99.90;;;;;;4997906;28;20542;-87
2023/07/12 06:30:56;;;;;;;21.02;6.90;;;17.60;99.90;;;;;;4981647;28;20030;-87
2023/07/12 06:33:23;;;;;;;11.30;6.47;;;17.60;99.90;;;;;;4981638;28;20101;-87
2023/07/12 06:35:49;;;;;;;12.68;7.00;;;17.60;99.90;;;;;;4998188;28;20050;-87
2023/07/12 06:38:16;;;;;;;19.25;7.28;;;17.60;99.90;;;;;;4997503;28;20081;-88
2023/07/12 06:40:47;;;;;;;14.93;7.00;;;17.70;99.90;;;;;;4966377;28;20108;-88
2023/07/12 06:43:18;;;;;;;15.93;6.85;;;17.70;99.90;;;;;;5015591;28;20088;-88
2023/07/12 06:45:47;;;;;;;16.55;6.63;;;17.70;99.90;;;;;;4965938;28;20021;-89
2023/07/12 06:48:19;;;;;;;13.80;7.13;;;17.70;99.90;;;;;;4982117;28;20038;-89
2023/07/12 06:50:44;;;;;;;14.73;6.40;;;17.70;99.90;;;;;;4981823;28;20117;-89
2023/07/12 06:53:10;;;;;;;15.60;6.30;;;17.70;99.90;;;;;;4981537;28;20129;-89
2023/07/12 06:55:42;;;;;;;16.05;6.88;;;17.80;99.90;;;;;;4997173;28;20149;-86
2023/07/12 06:58:07;;;;;;;14.32;7.30;;;17.80;99.90;;;;;;4981437;28;20033;-85
2023/07/12 07:00:33;;;;;;;16.40;6.35;;;17.90;99.90;;;;;;4981019;28;20120;-85
2023/07/12 07:02:58;;;;;;;19.63;6.78;;;17.90;99.90;;;;;;4980714;28;20034;-85
2023/07/12 07:05:24;;;;;;;12.85;6.40;;;17.90;99.90;;;;;;4964924;28;20033;-87
2023/07/12 07:07:50;;;;;;;13.82;7.00;;;17.90;99.90;;;;;;4997244;28;20029;-86
2023/07/12 07:10:16;;;;;;;15.57;7.13;;;17.90;99.90;;;;;;4996975;28;20030;-86
2023/07/12 07:12:41;;;;;;;14.25;7.43;;;17.90;99.90;;;;;;4997218;28;20126;-86
2023/07/12 07:15:07;;;;;;;14.80;6.75;;;17.90;99.90;;;;;;4983651;28;20046;-87
2023/07/12 07:17:33;;;;;;;16.00;6.85;;;17.90;99.90;;;;;;4997180;28;20033;-86
2023/07/12 07:19:59;;;;;;;19.83;8.43;;;17.90;99.90;;;;;;4964774;28;20026;-86
2023/07/12 07:22:24;;;;;;;14.68;7.70;;;18.00;99.90;;;;;;4980868;28;20026;-87
2023/07/12 07:24:50;;;;;;;17.83;8.07;;;18.00;99.90;;;;;;4964718;28;20104;-86
2023/07/12 07:27:17;;;;;;;16.23;7.10;;;18.00;99.90;;;;;;4997164;28;20029;-86
2023/07/12 07:29:43;;;;;;;18.13;7.90;;;18.10;99.90;;;;;;5014438;28;20032;-85
2023/07/12 07:32:08;;;;;;;16.52;7.88;;;18.10;99.90;;;;;;5014294;28;20109;-85
2023/07/12 07:34:34;;;;;;;12.93;7.38;;;18.10;99.90;;;;;;4980685;28;20121;-85
2023/07/12 07:37:00;;;;;;;16.73;7.18;;;18.20;99.90;;;;;;4980613;28;20034;-88
2023/07/12 07:39:26;;;;;;;19.67;7.05;;;18.20;99.90;;;;;;4980729;28;20018;-88
2023/07/12 07:41:51;;;;;;;17.30;7.93;;;18.20;99.90;;;;;;4980786;28;20072;-89
2023/07/12 07:44:17;;;;;;;17.35;6.65;;;18.20;99.90;;;;;;4996922;28;20053;-89
2023/07/12 07:46:43;;;;;;;16.75;5.88;;;18.30;99.90;;;;;;4997474;28;20504;-88
2023/07/12 07:49:08;;;;;;;14.50;6.30;;;18.20;99.90;;;;;;4967084;28;20043;-88
2023/07/12 07:51:35;;;;;;;11.82;5.43;;;18.30;99.90;;;;;;4990030;28;20057;-88
2023/07/12 07:54:01;;;;;;;18.13;6.38;;;18.30;99.90;;;;;;5008316;28;20088;-88
2023/07/12 07:56:28;;;;;;;16.25;5.75;;;18.30;99.90;;;;;;4995293;28;20026;-88
2023/07/12 07:58:54;;;;;;;12.35;5.20;;;18.40;99.90;;;;;;4985590;28;20026;-87
2023/07/12 08:01:29;;;;;;;17.70;6.10;;;18.40;99.90;;;;;;4983966;28;20045;-89
2023/07/12 08:04:10;;;;;;;14.90;5.45;;;18.40;99.90;;;;;;4964684;28;20092;-88
2023/07/12 08:06:38;;;;;;;17.60;6.07;;;18.50;99.90;;;;;;4996961;28;20048;-89
2023/07/12 08:09:05;;;;;;;16.10;6.13;;;18.50;99.90;;;;;;4996717;28;20030;-87
2023/07/12 08:11:31;;;;;;;16.98;6.00;;;18.50;99.90;;;;;;4980388;28;20427;-87
2023/07/12 08:13:57;;;;;;;14.25;6.03;;;18.50;99.90;;;;;;4979541;28;20060;-88
2023/07/12 08:16:27;;;;;;;16.58;5.57;;;18.50;99.90;;;;;;4980217;28;20026;-88
2023/07/12 08:18:53;;;;;;;11.00;6.47;;;18.50;99.90;;;;;;4996270;28;20018;-87
2023/07/12 08:21:28;;;;;;;12.05;6.18;;;18.50;99.90;;;;;;4980190;28;20129;-88
2023/07/12 08:23:54;;;;;;;12.20;6.53;;;18.50;99.90;;;;;;4996069;28;20100;-87
2023/07/12 08:26:20;;;;;;;16.95;6.28;;;18.50;99.90;;;;;;4963975;28;20396;-87
2023/07/12 08:28:46;;;;;;;15.27;5.80;;;18.60;99.90;;;;;;4963988;28;20030;-88
2023/07/12 08:31:12;;;;;;;14.00;6.18;;;18.60;99.90;;;;;;4979922;28;20074;-88
2023/07/12 08:33:38;;;;;;;14.98;6.03;;;18.60;99.90;;;;;;4980526;28;20049;-88
2023/07/12 08:36:03;;;;;;;14.80;6.70;;;18.60;99.90;;;;;;4997545;28;20018;-88
2023/07/12 08:38:31;;;;;;;14.07;6.05;;;18.60;99.90;;;;;;4980421;28;20252;-88
2023/07/12 08:40:58;;;;;;;12.40;5.97;;;18.70;99.90;;;;;;4982881;28;20029;-88
2023/07/12 08:43:31;;;;;;;17.73;5.97;;;18.80;99.90;;;;;;4998958;28;20477;-88
2023/07/12 08:46:23;;;;;;;16.63;5.55;;;18.90;99.90;;;;;;4998084;28;20026;-87
2023/07/12 08:48:54;;;;;;;20.00;6.22;;;18.90;99.90;;;;;;4996217;28;20035;-87
2023/07/12 08:51:30;;;;;;;13.02;4.95;;;19.00;99.90;;;;;;4996743;28;20026;-88
2023/07/12 08:53:57;;;;;;;18.17;5.28;;;19.10;99.90;;;;;;4996630;28;20033;-87
2023/07/12 08:56:25;;;;;;;14.15;5.60;;;19.20;99.90;;;;;;4997506;28;20034;-88
2023/07/12 08:58:53;;;;;;;18.58;6.50;;;19.20;99.90;;;;;;4988617;28;20029;-87
2023/07/12 09:01:36;;;;;;;14.05;5.43;;;19.30;99.90;;;;;;4964408;28;20030;-87
2023/07/12 09:04:25;;;;;;;15.60;5.47;;;19.30;99.90;;;;;;4996211;28;20109;-87
2023/07/12 09:06:56;;;;;;;11.80;5.22;;;19.40;99.90;;;;;;4996291;28;20084;-87
2023/07/12 09:09:23;;;;;;;14.60;4.45;;;19.40;99.90;;;;;;4997243;28;20452;-92
2023/07/12 09:11:49;;;;;;;11.50;4.05;;;19.50;99.90;;;;;;4964880;28;20022;-92
2023/07/12 09:14:36;;;;;;;16.52;5.15;;;19.50;99.90;;;;;;4996932;28;20038;-93
2023/07/12 09:17:21;;;;;;;13.90;5.20;;;19.60;99.90;;;;;;4994243;28;20096;-93
2023/07/12 09:19:47;;;;;;;11.18;4.82;;;19.70;99.90;;;;;;4997627;28;20054;-91
2023/07/12 09:22:16;;;;;;;11.00;4.50;;;19.80;99.90;;;;;;4980638;28;20021;-92
2023/07/12 09:24:45;;;;;;;11.55;4.07;;;19.80;99.90;;;;;;4996866;28;20022;-92
2023/07/12 09:27:16;;;;;;;11.27;4.38;;;19.90;99.90;;;;;;5000733;28;20026;-92
2023/07/12 09:29:42;;;;;;;15.00;4.32;;;20.00;99.90;;;;;;5000603;28;20022;-92
2023/07/12 09:32:17;;;;;;;9.18;4.13;;;20.10;99.90;;;;;;4985061;28;20064;-92
2023/07/12 09:34:59;;;;;;;14.77;4.78;;;20.10;99.90;;;;;;5000161;28;20389;-94
2023/07/12 09:37:33;;;;;;;10.13;3.90;;;20.20;99.90;;;;;;5000481;28;20121;-88
2023/07/12 09:40:14;;;;;;;12.45;4.25;;;20.20;99.90;;;;;;4984066;28;20063;-88
2023/07/12 09:42:39;;;;;;;;;;;20.30;99.90;;;;;;4999999;28;20029;-87
2023/07/12 09:45:10;;;;;;;9.95;3.60;;;20.30;99.90;;;;;;4999457;28;19909;-87
2023/07/12 09:47:44;;;;;;;11.77;4.13;;;20.30;99.90;;;;;;4984033;28;20046;-87
2023/07/12 09:50:20;;;;;;;9.68;3.85;;;20.30;99.90;;;;;;4998905;28;20026;-87
2023/07/12 09:53:01;;;;;;;17.67;3.70;;;20.40;99.90;;;;;;4991086;28;20361;-88
2023/07/12 09:55:51;;;;;;;9.77;3.55;;;20.50;99.90;;;;;;5016208;28;20113;-88
2023/07/12 09:58:33;;;;;;;9.38;3.78;;;20.50;99.90;;;;;;4991165;28;20052;-87
2023/07/12 10:01:20;;;;;;;12.00;3.05;;;20.60;99.90;;;;;;4990729;28;20104;-88
2023/07/12 10:03:53;;;;;;;11.73;3.97;;;20.60;99.90;;;;;;5010341;28;20492;-88
2023/07/12 10:06:32;;;;;;;13.70;3.88;;;20.60;99.90;;;;;;4999831;28;20036;-88
2023/07/12 10:09:08;;;;;;;11.40;3.72;;;20.70;99.90;;;;;;4995918;28;20022;-87
2023/07/12 10:11:48;;;;;;;9.35;3.95;;;20.80;99.90;;;;;;5016808;28;20389;-88
2023/07/12 10:14:18;;;;;;;10.87;3.87;;;20.80;99.90;;;;;;4999019;28;20332;-93
2023/07/12 10:16:54;;;;;;;12.57;3.55;;;20.90;99.90;;;;;;4998618;28;20269;-86
2023/07/12 10:19:24;;;;;;;10.07;3.90;;;21.00;99.90;;;;;;4998425;28;20025;-87
2023/07/12 10:21:53;;;;;;;8.17;2.97;;;21.00;99.90;;;;;;5015795;28;20022;-88
2023/07/12 10:24:21;;;;;;;10.80;3.67;;;21.00;99.90;;;;;;4998165;28;20261;-86
2023/07/12 10:26:48;;;;;;;10.88;3.28;;;21.00;99.90;;;;;;4998071;28;20501;-86
2023/07/12 10:29:20;;;;;;;9.82;3.40;;;21.00;99.90;;;;;;4998251;28;20029;-86
2023/07/12 10:32:00;;;;;;;13.70;4.32;;;21.00;99.90;;;;;;4998365;28;20026;-88
2023/07/12 10:34:27;;;;;;;14.18;3.38;;;21.10;99.90;;;;;;4985593;28;20524;-87
2023/07/12 10:37:00;;;;;;;10.20;3.72;;;21.10;99.90;;;;;;5002071;28;20014;-87
2023/07/12 10:39:27;;;;;;;13.95;4.32;;;21.20;99.90;;;;;;5012898;28;20029;-87
2023/07/12 10:42:05;;;;;;;10.35;3.30;;;21.20;99.90;;;;;;5018883;28;20089;-88
2023/07/12 10:44:37;;;;;;;8.65;3.38;;;21.20;99.90;;;;;;5022504;28;20049;-87
2023/07/12 10:47:09;;;;;;;11.55;3.65;;;21.20;99.90;;;;;;5016000;28;20046;-88
2023/07/12 10:49:59;;;;;;;12.90;4.07;;;21.10;99.90;;;;;;5019950;28;20033;-86
2023/07/12 10:52:33;;;;;;;9.32;3.03;;;21.10;99.90;;;;;;4998083;28;20465;-87
2023/07/12 10:55:02;;;;;;;12.43;3.60;;;21.10;99.90;;;;;;4997963;28;20069;-87
2023/07/12 10:57:37;;;;;;;10.60;3.22;;;21.10;99.90;;;;;;4997853;28;20081;-87
2023/07/12 11:00:25;;;;;;;14.60;3.63;;;21.00;99.90;;;;;;4997567;28;20412;-85
2023/07/12 11:03:11;;;;;;;9.85;3.63;;;21.00;99.90;;;;;;5003000;28;20022;-85
2023/07/12 11:05:45;;;;;;;9.38;3.03;;;21.00;99.90;;;;;;4948907;28;20048;-87
2023/07/12 11:08:32;;;;;;;9.05;2.90;;;20.90;99.90;;;;;;5015125;28;20034;-86
2023/07/12 11:11:21;;;;;;;10.68;3.10;;;20.90;99.90;;;;;;4997747;28;20032;-87
2023/07/12 11:13:53;;;;;;;11.32;3.60;;;20.80;99.90;;;;;;4997491;28;20030;-87
2023/07/12 11:16:29;;;;;;;10.25;2.90;;;20.90;99.90;;;;;;5015316;28;20050;-88
2023/07/12 11:18:57;;;;;;;10.18;3.38;;;20.90;99.90;;;;;;5000837;28;20495;-88
2023/07/12 11:21:51;;;;;;;11.13;2.95;;;21.00;99.90;;;;;;5017323;28;20033;-88
2023/07/12 11:24:25;;;;;;;10.13;3.08;;;21.00;99.90;;;;;;5016975;28;20127;-88
2023/07/12 11:26:55;;;;;;;12.00;3.65;;;21.00;99.90;;;;;;5016789;28;20025;-88
2023/07/12 11:29:30;;;;;;;8.50;3.00;;;21.00;99.90;;;;;;5016833;28;20029;-88
2023/07/12 11:32:10;;;;;;;8.95;3.22;;;21.00;99.90;;;;;;5016808;28;20037;-88
2023/07/12 11:34:59;;;;;;;9.52;3.42;;;21.20;99.90;;;;;;5034829;28;20025;-88
2023/07/12 11:37:37;;;;;;;11.38;3.47;;;21.20;99.90;;;;;;5017035;28;20013;-88
2023/07/12 11:40:20;;;;;;;10.93;3.60;;;21.30;99.90;;;;;;5035181;28;20033;-90
2023/07/12 11:42:46;;;;;;;7.97;4.00;;;21.40;99.90;;;;;;5017456;28;20526;-90
2023/07/12 11:45:15;;;;;;;11.50;4.28;;;21.40;99.90;;;;;;5000931;28;20025;-90
2023/07/12 11:47:54;;;;;;;14.23;4.88;;;21.50;99.90;;;;;;5001175;28;20034;-90
2023/07/12 11:50:29;;;;;;;11.95;4.22;;;21.60;99.90;;;;;;5001797;28;20030;-90
2023/07/12 11:53:04;;;;;;;11.55;3.60;;;21.70;99.90;;;;;;5000292;28;20053;-86
2023/07/12 11:55:30;;;;;;;7.72;2.33;;;21.80;99.90;;;;;;5016082;28;20021;-86
2023/07/12 11:57:56;;;;;;;7.55;2.97;;;21.80;99.90;;;;;;5016483;28;20045;-86
2023/07/12 12:00:25;;;;;;;10.10;2.78;;;21.90;99.90;;;;;;5017095;28;20476;-86
2023/07/12 12:02:53;;;;;;;10.25;3.33;;;22.00;99.90;;;;;;5016339;28;20033;-87
2023/07/12 12:05:24;;;;;;;7.15;2.55;;;22.00;99.90;;;;;;5016146;28;20463;-86
2023/07/12 12:07:53;;;;;;;7.72;2.88;;;22.10;99.90;;;;;;5016622;28;20064;-88
2023/07/12 12:10:28;;;;;;;6.30;2.63;;;22.20;99.90;;;;;;5017482;28;20053;-88
2023/07/12 12:13:18;;;;;;;9.10;2.97;;;22.20;99.90;;;;;;5018077;28;20018;-90
2023/07/12 12:15:47;;;;;;;9.23;2.40;;;22.30;99.90;;;;;;5017041;28;20499;-90
2023/07/12 12:18:16;;;;;;;6.97;2.60;;;22.40;99.90;;;;;;5000905;28;20116;-90
2023/07/12 12:20:53;;;;;;;11.93;2.92;;;22.40;99.90;;;;;;5016761;28;20105;-89
2023/07/12 12:23:35;;;;;;;8.63;2.30;;;22.40;99.90;;;;;;5017297;28;20567;-88
2023/07/12 12:26:14;;;;;;;6.53;2.30;;;22.50;99.90;;;;;;5024298;28;20101;-88
2023/07/12 12:28:41;;;;;;;6.95;2.70;;;22.50;99.90;;;;;;5016721;28;20026;-86
2023/07/12 12:31:13;;;;;;;12.18;2.85;;;22.50;99.90;;;;;;5016183;28;20017;-86
2023/07/12 12:33:48;;;;;;;7.05;2.35;;;22.50;99.90;;;;;;5016033;28;20021;-87
2023/07/12 12:36:27;;;;;;;9.43;2.92;;;22.60;99.90;;;;;;5015930;28;20037;-88
2023/07/12 12:38:59;;;;;;;6.78;2.75;;;22.60;98.90;;;;;;5016539;28;20017;-89
2023/07/12 12:41:34;;;;;;;8.90;3.08;;;22.70;99.90;;;;;;5017208;28;20025;-90
2023/07/12 12:44:12;;;;;;;8.32;2.53;;;22.70;98.70;;;;;;5016561;28;20116;-90
2023/07/12 12:46:38;;;;;;;9.60;2.67;;;22.80;99.60;;;;;;5016023;28;20061;-87
2023/07/12 12:49:19;;;;;;;10.68;2.88;;;22.80;99.30;;;;;;5015845;28;20021;-87
2023/07/12 12:51:44;;;;;;;8.30;2.92;;;22.90;99.50;;;;;;5033763;28;20032;-87